Time;durP1;ratioP1;P1;durP2;ratioP2;P2;SDS_P1;SDS_P2;PMS_P1;PMS_P2;Temp;Humidity;BMP_temperature;BMP_pressure;BME280_temperature;BME280_humidity;BME280_pressure;Samples;Min_cycle;Max_cycle;Signal;HPM_P1;HPM_P2
2023/08/20 00:02:20;;;;;;;15.48;9.43;;;25.90;99.90;;;;;;5014562;28;20402;-55
2023/08/20 00:05:06;;;;;;;10.90;9.63;;;25.90;99.90;;;;;;5014869;28;20030;-55
2023/08/20 00:07:52;;;;;;;11.13;9.30;;;25.80;99.90;;;;;;5014070;28;20037;-55
2023/08/20 00:10:38;;;;;;;15.65;9.60;;;25.80;99.90;;;;;;5001118;28;20041;-58
2023/08/20 00:13:24;;;;;;;13.95;9.25;;;25.80;99.90;;;;;;5014408;28;20117;-53
2023/08/20 00:16:10;;;;;;;15.65;9.63;;;25.70;99.90;;;;;;5014681;28;20112;-54
2023/08/20 00:18:57;;;;;;;10.30;9.20;;;25.60;99.90;;;;;;5000664;28;20030;-53
2023/08/20 00:21:44;;;;;;;13.73;9.80;;;25.60;99.90;;;;;;5000333;28;20026;-55
2023/08/20 00:24:30;;;;;;;11.52;9.82;;;25.70;99.90;;;;;;5013977;28;20036;-51
2023/08/20 00:27:16;;;;;;;12.52;9.80;;;25.70;99.90;;;;;;5014180;28;20540;-46
2023/08/20 00:30:03;;;;;;;10.38;9.27;;;25.70;99.90;;;;;;5013942;28;20030;-51
2023/08/20 00:32:50;;;;;;;12.50;9.73;;;25.60;99.90;;;;;;5013432;28;20494;-53
2023/08/20 00:35:36;;;;;;;12.07;9.98;;;25.50;99.90;;;;;;5014439;28;20025;-47
2023/08/20 00:38:22;;;;;;;13.27;10.90;;;25.40;99.90;;;;;;5013435;28;20036;-47
2023/08/20 00:41:08;;;;;;;12.48;10.52;;;25.40;99.90;;;;;;5013827;28;20483;-52
2023/08/20 00:43:53;;;;;;;14.35;11.13;;;25.40;99.90;;;;;;5012749;28;20030;-52
2023/08/20 00:46:39;;;;;;;11.05;9.95;;;25.40;99.90;;;;;;5013152;28;20519;-56
2023/08/20 00:49:26;;;;;;;13.00;10.60;;;25.40;99.90;;;;;;5013290;28;20033;-53
2023/08/20 00:52:14;;;;;;;13.45;11.00;;;25.40;99.90;;;;;;5013701;28;20401;-56
2023/08/20 00:55:08;;;;;;;11.77;10.43;;;25.40;99.90;;;;;;5014034;28;20030;-51
2023/08/20 00:57:54;;;;;;;12.65;11.35;;;25.30;99.90;;;;;;5013022;28;20506;-57
2023/08/20 01:00:41;;;;;;;14.65;11.30;;;25.30;99.90;;;;;;5014131;28;20072;-56
2023/08/20 01:03:28;;;;;;;13.77;10.82;;;25.20;99.90;;;;;;5011698;28;20044;-55
2023/08/20 01:06:46;;;;;;;13.95;10.48;;;25.10;99.90;;;;;;5012148;28;20490;-56
2023/08/20 01:10:10;;;;;;;13.13;10.85;;;25.10;99.90;;;;;;5013517;28;20128;-51
2023/08/20 01:12:56;;;;;;;14.48;11.70;;;25.20;99.90;;;;;;5013432;28;20026;-53
2023/08/20 01:15:42;;;;;;;12.02;10.75;;;25.10;99.90;;;;;;5013079;28;20461;-52
2023/08/20 01:18:28;;;;;;;15.75;10.93;;;25.10;99.90;;;;;;5013228;28;20083;-54
2023/08/20 01:21:44;;;;;;;13.80;11.45;;;25.00;99.90;;;;;;5013169;28;20037;-53
2023/08/20 01:24:52;;;;;;;13.63;11.80;;;24.90;99.90;;;;;;5013062;28;20014;-54
2023/08/20 01:27:50;;;;;;;16.05;11.52;;;24.80;99.90;;;;;;5013010;28;20030;-55
2023/08/20 01:30:37;;;;;;;12.13;10.60;;;24.80;99.90;;;;;;5012830;28;20088;-50
2023/08/20 01:33:26;;;;;;;12.43;10.98;;;24.80;99.90;;;;;;5013603;28;20502;-53
2023/08/20 01:36:12;;;;;;;12.15;10.95;;;24.70;99.90;;;;;;5013115;28;20033;-50
2023/08/20 01:38:58;;;;;;;14.52;11.68;;;24.70;99.90;;;;;;5012262;28;20494;-51
2023/08/20 01:41:44;;;;;;;13.73;12.30;;;24.60;99.90;;;;;;4998769;28;20107;-55
2023/08/20 01:44:30;;;;;;;11.60;10.38;;;24.70;99.90;;;;;;5011842;28;20034;-55
2023/08/20 01:47:16;;;;;;;12.68;11.30;;;24.70;99.90;;;;;;5013151;28;20030;-55
2023/08/20 01:50:02;;;;;;;12.27;11.07;;;24.70;99.90;;;;;;5012596;28;20061;-55
2023/08/20 01:52:48;;;;;;;12.70;10.68;;;24.60;99.90;;;;;;5011888;28;20421;-52
2023/08/20 01:55:34;;;;;;;12.50;11.20;;;24.60;99.90;;;;;;5012244;28;20402;-55
2023/08/20 01:58:20;;;;;;;16.40;12.25;;;24.60;99.90;;;;;;5012495;28;20510;-48
2023/08/20 02:01:06;;;;;;;14.15;12.75;;;24.60;99.90;;;;;;5012651;28;20573;-50
2023/08/20 02:03:52;;;;;;;17.38;13.57;;;24.60;99.90;;;;;;5012314;28;20053;-50
2023/08/20 02:06:38;;;;;;;16.63;14.18;;;24.60;99.90;;;;;;5011560;28;20041;-51
2023/08/20 02:09:24;;;;;;;17.15;12.75;;;24.60;99.90;;;;;;5011234;28;20026;-54
2023/08/20 02:12:10;;;;;;;16.52;14.80;;;24.50;99.90;;;;;;5011939;28;20038;-53
2023/08/20 02:14:56;;;;;;;20.33;14.23;;;24.40;99.90;;;;;;5011878;28;20030;-57
2023/08/20 02:17:42;;;;;;;16.58;14.68;;;24.40;99.90;;;;;;5012499;28;20025;-50
2023/08/20 02:20:28;;;;;;;16.70;15.00;;;24.40;99.90;;;;;;5012481;28;20068;-56
2023/08/20 02:23:14;;;;;;;17.55;15.85;;;24.40;99.90;;;;;;5011850;28;20395;-53
2023/08/20 02:26:00;;;;;;;18.70;16.70;;;24.20;99.90;;;;;;5012455;28;20026;-50
2023/08/20 02:28:46;;;;;;;18.88;16.98;;;24.20;99.90;;;;;;5011783;28;20030;-55
2023/08/20 02:31:39;;;;;;;20.50;18.50;;;24.20;99.90;;;;;;5069232;28;20725;-51
2023/08/20 02:34:25;;;;;;;21.05;16.80;;;24.20;99.90;;;;;;5057940;28;20401;-51
2023/08/20 02:37:10;;;;;;;21.90;19.70;;;24.20;99.90;;;;;;5049106;28;20406;-51
2023/08/20 02:39:56;;;;;;;21.83;19.67;;;24.30;99.90;;;;;;5048401;28;20029;-51
2023/08/20 02:42:42;;;;;;;21.67;19.35;;;24.20;99.90;;;;;;5059570;28;20481;-54
2023/08/20 02:45:28;;;;;;;26.48;22.38;;;24.10;99.90;;;;;;5068236;28;20074;-53
2023/08/20 02:48:14;;;;;;;22.90;20.75;;;24.10;99.90;;;;;;5067178;28;20083;-54
2023/08/20 02:51:00;;;;;;;23.75;21.23;;;24.00;99.90;;;;;;5067929;28;20116;-57
2023/08/20 02:53:46;;;;;;;26.15;23.30;;;24.00;99.90;;;;;;5067577;28;20028;-55
2023/08/20 02:56:32;;;;;;;26.95;24.25;;;24.00;99.90;;;;;;5062708;28;20498;-55
2023/08/20 02:59:18;;;;;;;26.75;23.67;;;24.00;99.90;;;;;;5047586;28;20029;-56
2023/08/20 03:02:04;;;;;;;26.88;23.77;;;24.00;99.90;;;;;;5047476;28;20017;-55
2023/08/20 03:04:50;;;;;;;29.27;26.15;;;24.00;99.90;;;;;;5047900;28;20104;-55
2023/08/20 03:07:36;;;;;;;31.75;26.58;;;23.90;99.90;;;;;;5047443;28;20028;-55
2023/08/20 03:10:22;;;;;;;29.88;25.90;;;23.80;99.90;;;;;;5047121;28;20060;-53
2023/08/20 03:13:07;;;;;;;26.90;24.05;;;23.80;99.90;;;;;;5047366;28;20449;-52
2023/08/20 03:15:53;;;;;;;28.13;25.30;;;23.90;99.90;;;;;;5047644;28;20118;-56
2023/08/20 03:18:39;;;;;;;27.90;25.20;;;23.90;99.90;;;;;;5046899;28;20128;-55
2023/08/20 03:21:25;;;;;;;29.02;25.98;;;23.90;99.90;;;;;;5047054;28;20091;-54
2023/08/20 03:24:11;;;;;;;29.65;26.63;;;23.80;99.90;;;;;;5047048;28;20068;-54
2023/08/20 03:26:57;;;;;;;28.17;25.45;;;23.80;99.90;;;;;;5048205;28;20104;-53
2023/08/20 03:29:43;;;;;;;30.20;26.92;;;23.70;99.90;;;;;;5046623;28;20037;-54
2023/08/20 03:32:29;;;;;;;31.80;28.42;;;23.60;99.90;;;;;;5047257;28;20442;-51
2023/08/20 03:35:15;;;;;;;34.45;30.85;;;23.50;99.90;;;;;;5048537;28;20498;-56
2023/08/20 03:38:02;;;;;;;39.03;34.53;;;23.40;99.90;;;;;;5046777;28;20052;-54
2023/08/20 03:40:47;;;;;;;38.53;33.53;;;23.30;99.90;;;;;;5047609;28;20041;-55
2023/08/20 03:43:33;;;;;;;41.67;35.13;;;23.40;99.90;;;;;;5033919;28;20037;-54
2023/08/20 03:46:19;;;;;;;40.50;35.08;;;23.40;99.90;;;;;;5033906;28;20057;-57
2023/08/20 03:49:05;;;;;;;45.45;39.42;;;23.50;99.90;;;;;;5033918;28;20099;-54
2023/08/20 03:51:51;;;;;;;52.92;43.33;;;23.40;99.90;;;;;;5033333;28;20091;-57
2023/08/20 03:54:37;;;;;;;50.83;44.10;;;23.40;99.90;;;;;;5047157;28;20083;-56
2023/08/20 03:57:23;;;;;;;49.88;42.55;;;23.20;99.90;;;;;;5053128;28;20108;-57
2023/08/20 04:00:10;;;;;;;46.47;41.45;;;23.20;99.90;;;;;;5053500;28;20136;-57
2023/08/20 04:02:56;;;;;;;47.20;39.90;;;23.20;99.90;;;;;;5052832;28;20056;-56
2023/08/20 04:05:42;;;;;;;44.75;39.90;;;23.10;99.90;;;;;;5053319;28;20040;-57
2023/08/20 04:08:29;;;;;;;43.63;38.75;;;23.10;99.90;;;;;;5047011;28;20025;-54
2023/08/20 04:11:15;;;;;;;41.30;37.15;;;23.10;99.90;;;;;;5034307;28;20045;-54
2023/08/20 04:14:01;;;;;;;39.60;35.33;;;23.20;99.90;;;;;;5034801;28;20029;-57
2023/08/20 04:16:47;;;;;;;41.65;35.97;;;23.20;99.90;;;;;;5034730;28;20097;-53
2023/08/20 04:19:33;;;;;;;40.05;35.80;;;23.20;99.90;;;;;;5034248;28;20033;-52
2023/08/20 04:22:18;;;;;;;39.53;35.40;;;23.20;99.90;;;;;;5032960;28;20083;-50
2023/08/20 04:25:05;;;;;;;39.05;34.90;;;23.20;99.90;;;;;;5033461;28;20056;-53
2023/08/20 04:27:51;;;;;;;38.95;34.88;;;23.20;99.90;;;;;;5033142;28;20061;-48
2023/08/20 04:30:37;;;;;;;35.50;32.03;;;23.10;99.90;;;;;;5033986;28;20044;-48
2023/08/20 04:33:23;;;;;;;41.63;33.30;;;23.10;99.90;;;;;;5033676;28;20158;-49
2023/08/20 04:36:09;;;;;;;39.50;34.03;;;23.20;99.90;;;;;;5039227;28;20021;-49
2023/08/20 04:38:55;;;;;;;36.83;32.88;;;23.10;99.90;;;;;;5052331;28;20120;-49
2023/08/20 04:41:41;;;;;;;38.60;34.45;;;23.20;99.90;;;;;;5051945;28;20025;-49
2023/08/20 04:44:27;;;;;;;38.90;34.60;;;23.10;99.90;;;;;;5052266;28;20056;-55
2023/08/20 04:47:13;;;;;;;35.70;31.80;;;23.20;99.90;;;;;;5052307;28;20032;-53
2023/08/20 04:49:59;;;;;;;37.15;32.58;;;23.20;99.90;;;;;;5051885;28;20021;-53
2023/08/20 04:52:44;;;;;;;36.85;31.60;;;23.10;99.90;;;;;;5051557;28;20025;-54
2023/08/20 04:55:30;;;;;;;35.88;31.98;;;23.20;99.90;;;;;;5051868;28;20029;-54
2023/08/20 04:58:16;;;;;;;36.88;32.88;;;23.30;99.90;;;;;;5051659;28;20024;-51
2023/08/20 05:01:02;;;;;;;34.15;30.27;;;23.20;99.90;;;;;;5051777;28;20082;-52
2023/08/20 05:03:48;;;;;;;34.25;30.52;;;23.30;99.90;;;;;;5051595;28;20574;-56
2023/08/20 05:06:34;;;;;;;33.28;29.77;;;23.30;99.90;;;;;;5051491;28;20116;-53
2023/08/20 05:09:21;;;;;;;36.15;32.33;;;23.30;99.90;;;;;;5050558;28;20029;-56
2023/08/20 05:12:08;;;;;;;34.53;30.80;;;23.40;99.90;;;;;;5052819;28;20033;-53
2023/08/20 05:14:54;;;;;;;34.38;30.77;;;23.40;99.90;;;;;;5052057;28;20033;-56
2023/08/20 05:17:39;;;;;;;31.30;28.15;;;23.40;99.90;;;;;;5050907;28;20025;-56
2023/08/20 05:20:25;;;;;;;34.03;30.42;;;23.50;99.90;;;;;;5051437;28;20036;-56
2023/08/20 05:23:11;;;;;;;34.03;30.38;;;23.50;99.90;;;;;;5048610;28;20059;-54
2023/08/20 05:25:57;;;;;;;33.17;29.50;;;23.50;99.90;;;;;;5031964;28;20091;-55
2023/08/20 05:28:43;;;;;;;34.60;31.08;;;23.50;99.90;;;;;;5031823;28;20056;-53
2023/08/20 05:31:29;;;;;;;34.75;30.80;;;23.50;99.90;;;;;;5031190;28;20540;-52
2023/08/20 05:34:15;;;;;;;34.40;30.75;;;23.40;99.90;;;;;;5031869;28;20033;-52
2023/08/20 05:37:01;;;;;;;33.67;30.25;;;23.30;99.90;;;;;;5031935;28;20033;-54
2023/08/20 05:39:47;;;;;;;35.28;31.17;;;23.40;99.90;;;;;;5033899;28;20030;-56
2023/08/20 05:42:33;;;;;;;36.22;32.50;;;23.40;99.90;;;;;;5031764;28;20056;-56
2023/08/20 05:45:19;;;;;;;34.60;31.10;;;23.50;99.90;;;;;;5031316;28;20137;-50
2023/08/20 05:48:05;;;;;;;35.22;31.42;;;23.40;99.90;;;;;;5031190;28;20026;-57
2023/08/20 05:50:51;;;;;;;33.33;29.83;;;23.50;99.90;;;;;;5031179;28;20155;-56
2023/08/20 05:53:37;;;;;;;34.10;28.48;;;23.50;99.90;;;;;;5032729;28;20040;-55
2023/08/20 05:56:23;;;;;;;32.35;28.98;;;23.50;99.90;;;;;;5045609;28;20861;-56
2023/08/20 05:59:09;;;;;;;32.65;29.15;;;23.60;99.90;;;;;;5036632;28;20104;-56
2023/08/20 06:01:55;;;;;;;33.78;29.88;;;23.60;99.90;;;;;;5050600;28;20021;-55
2023/08/20 06:04:41;;;;;;;31.25;28.02;;;23.50;99.90;;;;;;5050362;28;20074;-55
2023/08/20 06:07:27;;;;;;;30.27;26.83;;;23.50;99.90;;;;;;5050865;28;20167;-53
2023/08/20 06:10:13;;;;;;;34.08;29.60;;;23.60;99.90;;;;;;5048422;28;20060;-54
2023/08/20 06:12:59;;;;;;;31.15;27.88;;;23.60;99.90;;;;;;5050548;28;20027;-53
2023/08/20 06:15:44;;;;;;;29.50;26.63;;;23.60;99.90;;;;;;5051253;28;20490;-51
2023/08/20 06:18:31;;;;;;;29.65;26.60;;;23.70;99.90;;;;;;5050194;28;20025;-52
2023/08/20 06:21:17;;;;;;;32.40;27.05;;;23.80;99.90;;;;;;5050356;28;20587;-54
2023/08/20 06:24:03;;;;;;;30.05;27.08;;;24.00;99.90;;;;;;5052044;28;20044;-56
2023/08/20 06:26:49;;;;;;;27.42;24.50;;;24.00;99.90;;;;;;5045650;28;20025;-52
2023/08/20 06:29:35;;;;;;;30.55;27.38;;;24.00;99.90;;;;;;5030944;28;20041;-53
2023/08/20 06:32:21;;;;;;;31.48;28.20;;;24.10;99.90;;;;;;5049506;28;20540;-54
2023/08/20 06:35:09;;;;;;;29.83;26.80;;;23.90;99.90;;;;;;5050829;28;20081;-46
2023/08/20 06:37:55;;;;;;;29.92;25.90;;;23.70;99.90;;;;;;5049719;28;20025;-50
2023/08/20 06:40:41;;;;;;;31.00;26.67;;;23.80;99.90;;;;;;5049335;28;20036;-54
2023/08/20 06:43:26;;;;;;;30.70;27.50;;;23.70;99.90;;;;;;5042414;28;20053;-52
2023/08/20 06:46:12;;;;;;;31.77;28.27;;;23.70;99.90;;;;;;5040327;28;20029;-47
2023/08/20 06:48:58;;;;;;;30.58;27.40;;;23.70;99.90;;;;;;5044749;28;20033;-50
2023/08/20 06:51:44;;;;;;;30.35;27.15;;;23.60;99.90;;;;;;5034319;28;20406;-52
2023/08/20 06:54:30;;;;;;;29.98;25.88;;;23.50;99.90;;;;;;5031866;28;20030;-47
2023/08/20 06:57:16;;;;;;;29.60;25.55;;;23.40;99.90;;;;;;5042820;28;20028;-51
2023/08/20 07:00:04;;;;;;;30.38;25.90;;;23.30;99.90;;;;;;5044668;28;20041;-48
2023/08/20 07:02:50;;;;;;;29.42;26.42;;;23.40;99.90;;;;;;5048188;28;20037;-51
2023/08/20 07:05:36;;;;;;;27.83;24.85;;;23.40;99.90;;;;;;5046102;28;20090;-53
2023/08/20 07:08:22;;;;;;;30.63;24.73;;;23.40;99.90;;;;;;5040749;28;20532;-51
2023/08/20 07:11:08;;;;;;;27.63;24.70;;;23.50;99.90;;;;;;5038846;28;20046;-54
2023/08/20 07:13:54;;;;;;;25.67;23.05;;;23.50;99.90;;;;;;5031205;28;20030;-51
2023/08/20 07:16:40;;;;;;;26.42;23.63;;;23.70;99.90;;;;;;5040009;28;20037;-48
2023/08/20 07:19:26;;;;;;;28.40;24.58;;;23.90;99.90;;;;;;5043513;28;20172;-50
2023/08/20 07:22:12;;;;;;;26.42;23.73;;;24.20;99.90;;;;;;5045381;28;20473;-51
2023/08/20 07:24:58;;;;;;;28.45;25.50;;;24.30;99.90;;;;;;5033071;28;20372;-55
2023/08/20 07:27:44;;;;;;;29.23;26.13;;;24.10;99.90;;;;;;5041764;28;20396;-53
2023/08/20 07:30:30;;;;;;;28.92;25.90;;;24.00;99.90;;;;;;5043319;28;20033;-58
2023/08/20 07:33:16;;;;;;;27.13;24.33;;;23.90;99.90;;;;;;5032249;28;20029;-53
2023/08/20 07:36:02;;;;;;;25.08;22.55;;;23.80;99.90;;;;;;5032645;28;20071;-54
2023/08/20 07:38:49;;;;;;;24.42;20.45;;;23.70;99.90;;;;;;5033915;28;20493;-54
2023/08/20 07:41:35;;;;;;;21.83;19.52;;;24.00;99.90;;;;;;5036215;28;20116;-48
2023/08/20 07:44:21;;;;;;;20.35;18.23;;;24.10;99.90;;;;;;5043718;28;20486;-52
2023/08/20 07:47:07;;;;;;;19.98;17.85;;;24.10;99.90;;;;;;5033637;28;20060;-54
2023/08/20 07:49:53;;;;;;;19.05;17.15;;;24.10;99.90;;;;;;5039228;28;20033;-52
2023/08/20 07:52:40;;;;;;;19.02;17.08;;;24.10;99.90;;;;;;5051285;28;20488;-57
2023/08/20 07:55:26;;;;;;;18.13;16.17;;;24.20;99.90;;;;;;5049731;28;20017;-53
2023/08/20 07:58:12;;;;;;;18.20;16.15;;;24.30;99.90;;;;;;5051430;28;20029;-52
2023/08/20 08:00:58;;;;;;;16.95;15.25;;;24.30;99.90;;;;;;5051950;28;20033;-54
2023/08/20 08:03:44;;;;;;;18.50;16.60;;;24.60;99.90;;;;;;5045522;28;20025;-53
2023/08/20 08:06:30;;;;;;;17.65;15.07;;;24.60;99.90;;;;;;5049294;28;20047;-54
2023/08/20 08:09:27;;;;;;;17.23;15.48;;;24.60;99.90;;;;;;5035615;28;20036;-55
2023/08/20 08:12:13;;;;;;;16.45;14.73;;;24.60;99.90;;;;;;5041461;28;20025;-57
2023/08/20 08:14:59;;;;;;;20.38;16.63;;;24.70;99.90;;;;;;5052581;28;20040;-57
2023/08/20 08:17:45;;;;;;;19.58;17.45;;;24.70;99.90;;;;;;5052122;28;20060;-57
2023/08/20 08:20:31;;;;;;;20.95;18.77;;;24.50;99.90;;;;;;5051488;28;20044;-56
2023/08/20 08:23:17;;;;;;;23.85;21.38;;;24.60;99.90;;;;;;5031742;28;20048;-57
2023/08/20 08:26:03;;;;;;;25.10;22.52;;;24.20;99.90;;;;;;5032156;28;20112;-56
2023/08/20 08:28:49;;;;;;;22.65;20.45;;;24.40;99.90;;;;;;5033379;28;20104;-55
2023/08/20 08:31:35;;;;;;;21.60;19.50;;;24.50;99.90;;;;;;5039045;28;20487;-57
2023/08/20 08:34:21;;;;;;;24.48;22.05;;;24.60;99.90;;;;;;5051860;28;20659;-56
2023/08/20 08:37:07;;;;;;;23.00;20.88;;;24.70;99.90;;;;;;5050937;28;20071;-57
2023/08/20 08:39:53;;;;;;;23.88;21.48;;;24.80;99.90;;;;;;5038463;28;20025;-56
2023/08/20 08:42:40;;;;;;;21.00;18.77;;;25.00;99.90;;;;;;5051366;28;20029;-56
2023/08/20 08:45:26;;;;;;;21.20;19.20;;;25.20;99.90;;;;;;5043677;28;20175;-57
2023/08/20 08:48:13;;;;;;;20.55;18.48;;;25.40;99.90;;;;;;5036955;28;20030;-57
2023/08/20 08:51:00;;;;;;;20.60;18.52;;;25.60;99.90;;;;;;5042144;28;20037;-58
2023/08/20 08:53:46;;;;;;;20.42;17.90;;;25.70;99.90;;;;;;5033076;28;20449;-57
2023/08/20 08:56:32;;;;;;;19.08;17.13;;;25.90;99.90;;;;;;5039858;28;20107;-52
2023/08/20 08:59:19;;;;;;;18.55;16.67;;;26.00;99.90;;;;;;5049432;28;20405;-55
2023/08/20 09:02:10;;;;;;;16.50;14.90;;;26.10;99.90;;;;;;5049287;28;20028;-55
2023/08/20 09:04:56;;;;;;;15.70;14.07;;;26.30;99.90;;;;;;5049165;28;20052;-57
2023/08/20 09:07:43;;;;;;;17.55;15.90;;;26.40;99.90;;;;;;5050609;28;20043;-56
2023/08/20 09:10:30;;;;;;;19.63;17.75;;;26.40;99.90;;;;;;5047644;28;20035;-57
2023/08/20 09:13:16;;;;;;;19.23;17.35;;;26.30;99.90;;;;;;5032541;28;20032;-57
2023/08/20 09:16:07;;;;;;;20.73;18.90;;;26.30;99.90;;;;;;5039364;28;20025;-57
2023/08/20 09:18:53;;;;;;;19.38;17.58;;;26.20;99.90;;;;;;5034162;28;20021;-54
2023/08/20 09:21:39;;;;;;;17.30;15.70;;;26.20;99.90;;;;;;5031264;28;20057;-55
2023/08/20 09:24:32;;;;;;;17.83;16.30;;;26.30;99.90;;;;;;5032213;28;20026;-55
2023/08/20 09:27:18;;;;;;;18.15;16.40;;;26.30;99.90;;;;;;5032201;28;20494;-55
2023/08/20 09:30:05;;;;;;;19.05;17.15;;;26.30;99.90;;;;;;5050318;28;20513;-56
2023/08/20 09:33:15;;;;;;;18.40;16.60;;;26.30;99.90;;;;;;5049569;28;20033;-54
2023/08/20 09:36:03;;;;;;;21.60;19.08;;;26.40;99.90;;;;;;5050007;28;20036;-55
2023/08/20 09:38:51;;;;;;;17.63;16.02;;;26.70;99.90;;;;;;5050936;28;20032;-56
2023/08/20 09:41:38;;;;;;;18.92;17.17;;;26.80;99.90;;;;;;5033771;28;20528;-50
2023/08/20 09:44:25;;;;;;;19.52;17.33;;;27.00;99.90;;;;;;5043967;28;20051;-57
2023/08/20 09:47:13;;;;;;;18.60;16.73;;;26.90;99.90;;;;;;5050504;28;20029;-55
2023/08/20 09:50:00;;;;;;;23.35;21.05;;;27.00;99.90;;;;;;5050156;28;20032;-54
2023/08/20 09:53:03;;;;;;;18.27;16.45;;;27.20;99.90;;;;;;5049924;28;20022;-55
2023/08/20 09:55:51;;;;;;;18.23;16.38;;;27.30;99.90;;;;;;5034263;28;20060;-55
2023/08/20 09:58:38;;;;;;;15.82;14.30;;;27.30;99.90;;;;;;5036570;28;20112;-55
2023/08/20 10:01:25;;;;;;;18.42;16.70;;;27.40;99.90;;;;;;5047063;28;20032;-54
2023/08/20 10:04:12;;;;;;;15.88;14.27;;;27.40;99.90;;;;;;5039428;28;20038;-55
2023/08/20 10:06:59;;;;;;;15.80;14.20;;;27.40;99.90;;;;;;5049308;28;20374;-53
2023/08/20 10:09:46;;;;;;;16.05;14.48;;;27.80;99.90;;;;;;5044649;28;20065;-52
2023/08/20 10:12:32;;;;;;;17.25;15.50;;;28.10;99.90;;;;;;5042099;28;20052;-52
2023/08/20 10:15:18;;;;;;;18.20;16.17;;;28.10;99.90;;;;;;5041060;28;20029;-54
2023/08/20 10:18:05;;;;;;;18.13;16.38;;;28.20;99.70;;;;;;5049605;28;20517;-55
2023/08/20 10:20:51;;;;;;;15.98;14.50;;;28.20;99.70;;;;;;5029719;28;20092;-56
2023/08/20 10:23:42;;;;;;;16.30;14.70;;;28.10;99.80;;;;;;5028386;28;20045;-56
2023/08/20 10:26:28;;;;;;;16.52;14.80;;;28.00;99.70;;;;;;5031257;28;20028;-55
2023/08/20 10:29:41;;;;;;;16.30;14.95;;;28.00;99.70;;;;;;5035145;28;20038;-58
2023/08/20 10:32:55;;;;;;;20.05;18.15;;;28.00;99.70;;;;;;5028476;28;20375;-53
2023/08/20 10:35:41;;;;;;;15.30;13.63;;;28.00;99.50;;;;;;5031392;28;20605;-56
2023/08/20 10:38:35;;;;;;;16.85;15.15;;;27.80;99.90;;;;;;5029780;28;20056;-55
2023/08/20 10:41:28;;;;;;;15.10;13.70;;;28.00;99.60;;;;;;5029151;28;20113;-56
2023/08/20 10:44:14;;;;;;;15.63;13.90;;;28.10;99.80;;;;;;5028991;28;20028;-56
2023/08/20 10:47:06;;;;;;;15.35;13.80;;;28.10;99.50;;;;;;5031091;28;20067;-52
2023/08/20 10:49:53;;;;;;;17.67;16.02;;;28.10;99.50;;;;;;5044187;28;20076;-52
2023/08/20 10:52:41;;;;;;;16.20;14.63;;;28.20;99.60;;;;;;5047075;28;20039;-56
2023/08/20 10:55:28;;;;;;;15.38;13.88;;;28.40;98.90;;;;;;5034802;28;20112;-50
2023/08/20 10:58:14;;;;;;;15.77;14.02;;;28.30;99.10;;;;;;5051623;28;20036;-55
2023/08/20 11:01:22;;;;;;;15.30;13.95;;;28.30;99.10;;;;;;5066790;28;20075;-55
2023/08/20 11:04:09;;;;;;;15.23;13.77;;;28.30;99.50;;;;;;5073393;28;20087;-50
2023/08/20 11:06:57;;;;;;;16.88;15.38;;;28.20;99.50;;;;;;5071683;28;20485;-54
2023/08/20 11:09:44;;;;;;;43.80;35.80;;;28.30;99.20;;;;;;5067289;28;20772;-55
2023/08/20 11:12:30;;;;;;;15.98;14.57;;;28.40;99.40;;;;;;5080246;28;20044;-56
2023/08/20 11:15:20;;;;;;;15.63;14.20;;;28.40;99.30;;;;;;5072770;28;20025;-59
2023/08/20 11:18:06;;;;;;;16.60;14.90;;;28.50;99.20;;;;;;5072832;28;20100;-57
2023/08/20 11:20:54;;;;;;;15.60;14.15;;;28.60;99.30;;;;;;5074306;28;20033;-57
2023/08/20 11:23:46;;;;;;;14.35;12.95;;;28.60;99.50;;;;;;5053563;28;20029;-56
2023/08/20 11:26:36;;;;;;;15.43;13.90;;;28.60;99.80;;;;;;5063849;28;20032;-56
2023/08/20 11:29:22;;;;;;;16.23;14.70;;;28.50;99.50;;;;;;5072757;28;20059;-56
2023/08/20 11:32:09;;;;;;;17.38;15.70;;;28.40;99.40;;;;;;5067900;28;20533;-54
2023/08/20 11:34:55;;;;;;;15.73;14.13;;;28.30;99.40;;;;;;5051971;28;20028;-56
2023/08/20 11:37:41;;;;;;;16.58;15.18;;;28.20;99.70;;;;;;5063203;28;20021;-56
2023/08/20 11:40:27;;;;;;;17.35;15.75;;;28.00;99.90;;;;;;5064240;28;20024;-56
2023/08/20 11:43:13;;;;;;;18.73;16.80;;;27.70;99.90;;;;;;5073675;28;20016;-55
2023/08/20 11:45:59;;;;;;;16.67;15.15;;;27.70;99.90;;;;;;5075709;28;20016;-56
2023/08/20 11:49:07;;;;;;;16.98;15.38;;;27.80;99.90;;;;;;5077327;28;20494;-53
2023/08/20 11:51:55;;;;;;;17.10;15.55;;;28.00;99.90;;;;;;5078987;28;20032;-55
2023/08/20 11:54:42;;;;;;;17.65;16.02;;;28.10;99.90;;;;;;5061092;28;20056;-54
2023/08/20 11:57:31;;;;;;;17.55;16.05;;;28.20;99.90;;;;;;5071210;28;20029;-56
2023/08/20 12:00:27;;;;;;;18.73;16.90;;;28.00;99.90;;;;;;5077805;28;20024;-53
2023/08/20 12:03:13;;;;;;;19.20;17.33;;;28.10;99.90;;;;;;5091981;28;20103;-52
2023/08/20 12:05:59;;;;;;;17.85;16.20;;;28.00;99.90;;;;;;5085164;28;20052;-52
2023/08/20 12:08:45;;;;;;;17.92;16.25;;;28.00;99.90;;;;;;5072655;28;20079;-55
2023/08/20 12:11:33;;;;;;;18.05;16.25;;;28.00;99.90;;;;;;5063238;28;20037;-53
2023/08/20 12:14:19;;;;;;;17.15;15.43;;;27.90;99.90;;;;;;5055948;28;20021;-56
2023/08/20 12:17:05;;;;;;;17.35;15.75;;;27.90;99.90;;;;;;5072799;28;20020;-54
2023/08/20 12:19:51;;;;;;;19.05;17.45;;;27.80;99.90;;;;;;5063709;28;20017;-55
2023/08/20 12:22:37;;;;;;;17.00;15.32;;;28.00;99.90;;;;;;5079504;28;20105;-53
2023/08/20 12:25:23;;;;;;;17.60;16.10;;;28.40;99.90;;;;;;5050917;28;20115;-56
2023/08/20 12:28:09;;;;;;;19.60;15.77;;;28.70;99.90;;;;;;5070789;28;20509;-55
2023/08/20 12:30:55;;;;;;;18.27;16.67;;;29.00;99.30;;;;;;5067114;28;20087;-58
2023/08/20 12:33:41;;;;;;;18.85;17.15;;;29.30;99.10;;;;;;5071003;28;20476;-49
2023/08/20 12:36:27;;;;;;;16.63;15.13;;;29.40;98.90;;;;;;5071093;28;20020;-53
2023/08/20 12:39:14;;;;;;;16.90;15.30;;;29.70;99.00;;;;;;5046005;28;20025;-51
2023/08/20 12:41:59;;;;;;;18.33;16.63;;;29.90;98.40;;;;;;5061722;28;20028;-51
2023/08/20 12:44:45;;;;;;;16.65;14.93;;;29.90;98.20;;;;;;5050057;28;20075;-55
2023/08/20 12:47:32;;;;;;;17.63;15.77;;;29.80;98.40;;;;;;5057046;28;20378;-49
2023/08/20 12:50:18;;;;;;;17.13;15.65;;;30.10;97.80;;;;;;5069525;28;20032;-49
2023/08/20 12:53:04;;;;;;;16.40;14.77;;;30.20;97.60;;;;;;5071032;28;20037;-50
2023/08/20 12:55:50;;;;;;;15.85;14.35;;;30.20;97.80;;;;;;5069512;28;20116;-50
2023/08/20 12:58:37;;;;;;;16.75;15.13;;;30.60;97.80;;;;;;5060524;28;20033;-52
2023/08/20 13:01:23;;;;;;;18.85;15.35;;;30.60;97.20;;;;;;5059598;28;20029;-49
2023/08/20 13:04:09;;;;;;;16.80;15.18;;;30.50;96.70;;;;;;5080599;28;20024;-52
2023/08/20 13:06:56;;;;;;;14.15;12.82;;;30.40;97.00;;;;;;5070935;28;20508;-49
2023/08/20 13:09:42;;;;;;;14.13;12.82;;;30.40;97.10;;;;;;5071589;28;20041;-51
2023/08/20 13:12:32;;;;;;;16.05;14.05;;;30.50;96.60;;;;;;5022858;28;20021;-50
2023/08/20 13:15:19;;;;;;;14.75;13.25;;;30.50;96.50;;;;;;5053681;28;20024;-53
2023/08/20 13:18:07;;;;;;;16.85;12.80;;;30.40;96.10;;;;;;5069978;28;20028;-51
2023/08/20 13:20:54;;;;;;;14.68;13.18;;;30.40;96.30;;;;;;5070727;28;20107;-46
2023/08/20 13:23:40;;;;;;;15.10;13.80;;;30.40;96.20;;;;;;5046031;28;20121;-49
2023/08/20 13:26:26;;;;;;;12.98;11.77;;;30.30;96.50;;;;;;5050158;28;20067;-48
2023/08/20 13:29:12;;;;;;;13.85;12.70;;;30.40;96.60;;;;;;5050585;28;20040;-46
2023/08/20 13:31:58;;;;;;;14.55;13.13;;;30.50;95.80;;;;;;5050980;28;20029;-49
2023/08/20 13:34:44;;;;;;;13.95;12.57;;;30.50;96.10;;;;;;5051389;28;20456;-49
2023/08/20 13:37:33;;;;;;;15.18;13.75;;;30.40;96.30;;;;;;5050289;28;20393;-53
2023/08/20 13:40:19;;;;;;;14.88;13.32;;;30.50;96.10;;;;;;5050224;28;20051;-51
2023/08/20 13:43:06;;;;;;;14.02;12.65;;;30.30;96.40;;;;;;5060756;28;20075;-52
2023/08/20 13:45:52;;;;;;;14.50;13.18;;;30.40;96.30;;;;;;5066076;28;20040;-48
2023/08/20 13:48:38;;;;;;;14.15;12.80;;;30.60;96.10;;;;;;5080038;28;20025;-50
2023/08/20 13:51:24;;;;;;;14.10;12.80;;;30.40;96.40;;;;;;5069223;28;20029;-51
2023/08/20 13:54:10;;;;;;;14.32;12.98;;;30.80;96.00;;;;;;5071007;28;20024;-46
2023/08/20 13:56:56;;;;;;;13.38;12.07;;;31.10;95.60;;;;;;5084001;28;20462;-49
2023/08/20 13:59:42;;;;;;;14.20;12.90;;;31.30;94.90;;;;;;5070792;28;20784;-52
2023/08/20 14:02:28;;;;;;;13.00;11.80;;;31.60;94.70;;;;;;5068959;28;20080;-48
2023/08/20 14:05:14;;;;;;;13.38;12.07;;;31.60;94.60;;;;;;5059221;28;20039;-52
2023/08/20 14:07:59;;;;;;;13.32;11.55;;;31.80;94.80;;;;;;5069293;28;20063;-51
2023/08/20 14:10:45;;;;;;;13.10;11.80;;;31.70;94.40;;;;;;5052267;28;20505;-50